Fayette, Missouri
Current Conditions -  °F | °C
As of 12:35 AM on Friday 31 Oct 2014 (Local Time) from KVER Reporting Station
Clear Clear  
Wind Chill: 46°   Ceiling: Unl
Heat Index: 49°   Visibility: 10mi
Dew Point: 42°   Wind: 7mph
Humidity: 75%   Direction: 310°NW
Pressure: 30.11"   Gusts: NA
Location:  39.15°N, 92.68°W
Report Text: KVER 310535Z AUTO 31006KT 10SM CLR 10/05 A3011 RMK AO2 T00960053
Loading
Personal Weather Stations






























Interactive Weather Map New forecast layout! Learn more

10-Day Weather Forecast

Advertisements
Track Severe Weather on mobile